LYBE/BEG METAR and TAF weather

Enter ICAO airport designator
Station Type Date Time Source
LYBE METAR 2019/07/20 20:00 UTC NOAA

LYBE 202000Z 09004KT CAVOK 24/17 Q1018 NOSIG


Station Type Date Time Source
LYBE Decoded METAR 2019/07/20 20:00 UTC NOAA

Beograd / Surcin, Serbia and Montenegro (LYBE) 44-49N 020-17E 99M
Jul 20, 2019 - 04:00 PM EDT / 2019.07.20 2000 UTC
Wind: from the E (090 degrees) at 5 MPH (4 KT):0
Visibility: greater than 7 mile(s):0
Temperature: 75 F (24 C)
Dew Point: 62 F (17 C)
Relative Humidity: 64%
Pressure (altimeter): 30.06 in. Hg (1018 hPa)
ob: LYBE 202000Z 09004KT CAVOK 24/17 Q1018 NOSIG
cycle: 20

Station Type Date Time Source
LYBE TAF 2019/07/20 18:21 UTC NOAA

TAF LYBE 201700Z 2018/2118 24005KT CAVOK TX33/2113Z TN19/2103Z

Example: see airport list